Time;durP1;ratioP1;P1;durP2;ratioP2;P2;SDS_P1;SDS_P2;PMS_P1;PMS_P2;Temp;Humidity;BMP_temperature;BMP_pressure;BME280_temperature;BME280_humidity;BME280_pressure;Samples;Min_cycle;Max_cycle;Signal;HPM_P1;HPM_P2
2023/01/19 00:00:16;;;;;;;23.67;4.38;;;;;;;;;;2585954;23;20086;-92
2023/01/19 00:01:17;;;;;;;17.10;3.88;;;;;;;;;;2570796;23;19993;-92
2023/01/19 00:02:17;;;;;;;19.85;4.28;;;;;;;;;;2555711;23;20040;-90
2023/01/19 00:03:18;;;;;;;25.10;4.30;;;;;;;;;;2571955;23;20054;-91
2023/01/19 00:04:18;;;;;;;18.42;4.13;;;;;;;;;;2582026;23;20050;-89
2023/01/19 00:05:19;;;;;;;22.92;4.47;;;;;;;;;;2585426;23;20004;-91
2023/01/19 00:06:19;;;;;;;19.40;3.97;;;;;;;;;;2568180;23;20433;-92
2023/01/19 00:07:19;;;;;;;22.48;4.78;;;;;;;;;;2571985;23;19996;-91
2023/01/19 00:08:20;;;;;;;26.77;5.07;;;;;;;;;;2567534;23;20009;-90
2023/01/19 00:09:21;;;;;;;27.60;4.47;;;;;;;;;;2572018;23;19996;-91
2023/01/19 00:10:21;;;;;;;19.67;4.57;;;;;;;;;;2585400;23;20428;-90
2023/01/19 00:11:22;;;;;;;28.27;4.65;;;;;;;;;;2585819;23;19996;-93
2023/01/19 00:12:23;;;;;;;19.20;3.90;;;;;;;;;;2586039;23;20353;-89
2023/01/19 00:13:23;;;;;;;16.60;4.05;;;;;;;;;;2568262;23;20079;-90
2023/01/19 00:14:23;;;;;;;15.48;3.38;;;;;;;;;;2555797;23;20001;-91
2023/01/19 00:15:24;;;;;;;18.55;5.18;;;;;;;;;;2555745;23;20024;-92
2023/01/19 00:16:24;;;;;;;30.48;4.80;;;;;;;;;;2555807;23;20083;-91
2023/01/19 00:17:25;;;;;;;25.30;4.45;;;;;;;;;;2556953;23;20001;-92
2023/01/19 00:18:25;;;;;;;22.23;4.10;;;;;;;;;;2557178;23;20076;-91
2023/01/19 00:19:27;;;;;;;21.90;5.05;;;;;;;;;;2557992;23;19997;-91
2023/01/19 00:20:29;;;;;;;23.40;4.80;;;;;;;;;;2570052;23;20500;-89
2023/01/19 00:21:31;;;;;;;22.70;3.90;;;;;;;;;;2586751;23;20106;-90
2023/01/19 00:22:34;;;;;;;21.83;4.57;;;;;;;;;;2575197;23;20032;-88
2023/01/19 00:23:34;;;;;;;19.98;3.33;;;;;;;;;;2562887;23;20351;-87
2023/01/19 00:24:35;;;;;;;25.73;5.05;;;;;;;;;;2561374;23;20004;-89
2023/01/19 00:25:41;;;;;;;22.13;5.18;;;;;;;;;;2558819;23;20024;-89
2023/01/19 00:26:41;;;;;;;19.48;3.88;;;;;;;;;;2562401;23;20031;-89
2023/01/19 00:27:48;;;;;;;22.10;4.32;;;;;;;;;;2556614;23;20016;-90
2023/01/19 00:28:49;;;;;;;26.20;5.18;;;;;;;;;;2573197;23;20450;-90
2023/01/19 00:29:49;;;;;;;18.20;4.22;;;;;;;;;;2568555;23;19993;-89
2023/01/19 00:30:50;;;;;;;31.02;4.80;;;;;;;;;;2568634;23;19992;-90
2023/01/19 00:31:51;;;;;;;22.25;4.10;;;;;;;;;;2558633;23;20013;-90
2023/01/19 00:32:51;;;;;;;30.10;5.35;;;;;;;;;;2571206;23;20008;-90
2023/01/19 00:33:52;;;;;;;18.77;4.10;;;;;;;;;;2587803;23;20392;-90
2023/01/19 00:34:52;;;;;;;18.80;4.95;;;;;;;;;;2562297;23;19993;-90
2023/01/19 00:35:56;;;;;;;22.80;4.03;;;;;;;;;;2556699;23;20127;-89
2023/01/19 00:36:56;;;;;;;25.60;5.07;;;;;;;;;;2574047;23;20460;-91
2023/01/19 00:37:57;;;;;;;26.02;5.90;;;;;;;;;;2591718;23;20008;-90
2023/01/19 00:38:59;;;;;;;18.73;3.88;;;;;;;;;;2568498;23;20000;-90
2023/01/19 00:40:00;;;;;;;20.20;4.78;;;;;;;;;;2556658;23;20005;-89
2023/01/19 00:41:00;;;;;;;18.42;4.03;;;;;;;;;;2555873;23;20008;-90
2023/01/19 00:43:19;;;;;;;20.10;3.95;;;;;;;;;;2577744;23;20348;-89
2023/01/19 00:44:20;;;;;;;23.80;4.00;;;;;;;;;;2568816;23;19996;-89
2023/01/19 00:45:22;;;;;;;25.42;4.63;;;;;;;;;;2556123;23;20092;-92
2023/01/19 00:46:25;;;;;;;17.67;4.15;;;;;;;;;;2568767;23;20019;-91
2023/01/19 00:47:26;;;;;;;24.23;5.03;;;;;;;;;;2568978;23;20108;-90
2023/01/19 00:48:26;;;;;;;22.88;4.97;;;;;;;;;;2568479;23;20453;-91
2023/01/19 00:49:27;;;;;;;21.92;4.95;;;;;;;;;;2556126;23;20462;-91
2023/01/19 00:50:28;;;;;;;24.38;6.38;;;;;;;;;;2572985;23;20000;-92
2023/01/19 00:51:29;;;;;;;22.85;4.28;;;;;;;;;;2568505;23;20011;-91
2023/01/19 00:52:29;;;;;;;18.38;4.15;;;;;;;;;;2556146;23;19993;-90
2023/01/19 00:53:31;;;;;;;22.38;4.20;;;;;;;;;;2572959;23;19992;-91
2023/01/19 00:54:31;;;;;;;19.10;4.40;;;;;;;;;;2568237;23;20055;-90
2023/01/19 00:55:34;;;;;;;24.38;5.45;;;;;;;;;;2568380;23;20067;-90
2023/01/19 00:56:36;;;;;;;26.25;4.75;;;;;;;;;;2580638;23;19992;-91
2023/01/19 00:57:37;;;;;;;30.40;5.72;;;;;;;;;;2556037;23;20001;-91
2023/01/19 00:58:38;;;;;;;20.83;4.38;;;;;;;;;;2568662;23;19993;-91
2023/01/19 00:59:38;;;;;;;18.83;4.55;;;;;;;;;;2585153;23;20502;-91
2023/01/19 01:00:39;;;;;;;18.73;4.63;;;;;;;;;;2568534;23;19997;-91
2023/01/19 01:01:39;;;;;;;25.63;4.32;;;;;;;;;;2568446;23;19997;-91
2023/01/19 01:02:41;;;;;;;22.48;4.45;;;;;;;;;;2585511;23;20428;-91
2023/01/19 01:03:41;;;;;;;23.95;5.75;;;;;;;;;;2568299;23;19988;-91
2023/01/19 01:04:42;;;;;;;28.90;5.43;;;;;;;;;;2572432;23;20111;-91
2023/01/19 01:05:42;;;;;;;24.58;3.83;;;;;;;;;;2568781;23;20503;-90
2023/01/19 01:06:43;;;;;;;24.13;4.35;;;;;;;;;;2555923;23;20030;-91
2023/01/19 01:07:44;;;;;;;21.75;4.85;;;;;;;;;;2556087;23;20239;-91
2023/01/19 01:08:45;;;;;;;23.08;4.07;;;;;;;;;;2572625;23;20378;-91
2023/01/19 01:09:45;;;;;;;28.30;4.95;;;;;;;;;;2568600;23;20024;-91
2023/01/19 01:10:46;;;;;;;22.17;4.45;;;;;;;;;;2572643;23;19992;-91
2023/01/19 01:11:47;;;;;;;25.13;4.47;;;;;;;;;;2586197;23;20383;-90
2023/01/19 01:12:47;;;;;;;27.55;5.35;;;;;;;;;;2568666;23;20139;-91
2023/01/19 01:13:49;;;;;;;28.33;4.57;;;;;;;;;;2568397;23;20040;-90
2023/01/19 01:14:49;;;;;;;30.33;4.90;;;;;;;;;;2568186;23;20100;-90
2023/01/19 01:15:51;;;;;;;24.27;3.95;;;;;;;;;;2556094;23;19993;-91
2023/01/19 01:16:51;;;;;;;26.25;5.35;;;;;;;;;;2556398;23;20020;-91
2023/01/19 01:17:52;;;;;;;26.52;4.63;;;;;;;;;;2568492;23;20001;-91
2023/01/19 01:18:53;;;;;;;26.25;5.05;;;;;;;;;;2585614;23;19999;-91
2023/01/19 01:19:53;;;;;;;21.48;4.60;;;;;;;;;;2586201;23;20517;-90
2023/01/19 01:21:03;;;;;;;27.20;4.63;;;;;;;;;;2568593;23;20031;-91
2023/01/19 01:22:04;;;;;;;25.83;4.50;;;;;;;;;;2141616;23;10001057;-91
2023/01/19 01:23:04;;;;;;;19.00;3.67;;;;;;;;;;2581215;23;20235;-91
2023/01/19 01:24:05;;;;;;;24.65;4.85;;;;;;;;;;2568695;23;20023;-92
2023/01/19 01:25:06;;;;;;;16.15;3.50;;;;;;;;;;2556030;23;19993;-91
2023/01/19 01:26:06;;;;;;;24.27;5.43;;;;;;;;;;2568515;23;20016;-90
2023/01/19 01:27:07;;;;;;;24.38;4.82;;;;;;;;;;2571929;23;20175;-91
2023/01/19 01:28:07;;;;;;;30.17;4.22;;;;;;;;;;1714077;23;10001981;-90
2023/01/19 01:29:08;;;;;;;23.83;5.35;;;;;;;;;;2571518;23;20511;-91
2023/01/19 01:30:11;;;;;;;19.33;4.80;;;;;;;;;;2556536;23;20007;-92
2023/01/19 01:31:11;;;;;;;22.40;4.13;;;;;;;;;;2556483;23;20050;-92
2023/01/19 01:32:13;;;;;;;18.48;5.10;;;;;;;;;;2555955;23;20404;-92
2023/01/19 01:33:13;;;;;;;22.95;4.78;;;;;;;;;;2572830;23;19996;-91
2023/01/19 01:34:14;;;;;;;26.48;5.88;;;;;;;;;;2568345;23;20484;-91
2023/01/19 01:35:15;;;;;;;29.70;4.85;;;;;;;;;;2560390;23;20028;-90
2023/01/19 01:36:17;;;;;;;22.58;4.55;;;;;;;;;;2560140;23;20055;-91
2023/01/19 01:37:20;;;;;;;17.73;3.83;;;;;;;;;;2556657;23;20342;-92
2023/01/19 01:38:21;;;;;;;23.27;4.22;;;;;;;;;;2573252;23;20414;-92
2023/01/19 01:39:21;;;;;;;22.58;5.28;;;;;;;;;;2568354;23;19992;-92
2023/01/19 01:40:22;;;;;;;23.45;5.35;;;;;;;;;;2556446;23;20457;-91
2023/01/19 01:41:22;;;;;;;21.23;4.88;;;;;;;;;;2572585;23;20000;-92
2023/01/19 01:42:28;;;;;;;20.45;3.95;;;;;;;;;;2568695;23;20012;-91
2023/01/19 01:43:43;;;;;;;31.10;5.10;;;;;;;;;;2556883;23;20545;-91
2023/01/19 01:44:48;;;;;;;25.25;4.75;;;;;;;;;;2571376;23;19996;-89
2023/01/19 01:45:49;;;;;;;22.52;4.20;;;;;;;;;;2573030;23;20035;-93
2023/01/19 01:46:49;;;;;;;31.00;4.55;;;;;;;;;;2557176;23;19997;-91
2023/01/19 01:47:51;;;;;;;18.73;5.53;;;;;;;;;;2560508;23;20061;-92
2023/01/19 01:49:09;;;;;;;21.77;5.05;;;;;;;;;;2570320;23;20441;-91
2023/01/19 01:50:23;;;;;;;23.40;4.60;;;;;;;;;;2581440;23;20019;-90
2023/01/19 01:51:25;;;;;;;24.25;4.43;;;;;;;;;;2568619;23;20433;-90
2023/01/19 01:52:28;;;;;;;30.67;4.72;;;;;;;;;;2568409;23;20039;-91
2023/01/19 01:53:31;;;;;;;23.60;4.35;;;;;;;;;;2568579;23;19996;-91
2023/01/19 01:54:32;;;;;;;20.25;4.13;;;;;;;;;;2556136;23;20005;-91
2023/01/19 01:55:36;;;;;;;11.93;3.83;;;;;;;;;;2568368;23;20183;-91
2023/01/19 01:56:41;;;;;;;24.98;4.75;;;;;;;;;;2568147;23;20019;-90
2023/01/19 01:57:46;;;;;;;21.85;4.50;;;;;;;;;;2557028;23;20043;-91
2023/01/19 01:58:47;;;;;;;23.92;4.80;;;;;;;;;;2573420;23;20443;-90
2023/01/19 01:59:49;;;;;;;28.85;5.35;;;;;;;;;;2586058;23;19988;-92
2023/01/19 02:03:41;;;;;;;21.00;4.57;;;;;;;;;;2586744;23;20016;-91
2023/01/19 02:05:03;;;;;;;23.58;4.20;;;;;;;;;;2591191;23;19996;-91
2023/01/19 02:06:06;;;;;;;23.17;4.68;;;;;;;;;;2589718;23;20020;-92
2023/01/19 02:13:56;;;;;;;31.42;4.80;;;;;;;;;;2586227;23;19999;-92
2023/01/19 02:14:56;;;;;;;17.88;3.80;;;;;;;;;;2585814;23;20456;-91
2023/01/19 02:16:01;;;;;;;23.10;3.78;;;;;;;;;;2568351;23;20087;-92
2023/01/19 02:17:03;;;;;;;22.30;4.93;;;;;;;;;;2569224;23;20000;-91
2023/01/19 02:18:04;;;;;;;17.45;3.80;;;;;;;;;;2580645;23;20004;-91
2023/01/19 02:19:07;;;;;;;25.63;4.22;;;;;;;;;;2572658;23;20047;-92
2023/01/19 02:20:09;;;;;;;28.17;4.43;;;;;;;;;;2585743;23;19996;-92
2023/01/19 02:21:12;;;;;;;21.92;4.63;;;;;;;;;;2568475;23;20063;-91
2023/01/19 02:22:23;;;;;;;19.65;4.57;;;;;;;;;;2581297;23;20063;-91
2023/01/19 02:23:46;;;;;;;18.98;3.67;;;;;;;;;;2592380;22;20031;-91
2023/01/19 02:24:48;;;;;;;20.25;4.35;;;;;;;;;;2586486;23;19996;-92
2023/01/19 02:25:49;;;;;;;18.38;4.28;;;;;;;;;;2576621;23;20535;-91
2023/01/19 02:26:50;;;;;;;21.77;4.10;;;;;;;;;;2589125;23;20011;-91
2023/01/19 02:27:52;;;;;;;22.52;3.92;;;;;;;;;;2586522;23;20015;-91
2023/01/19 02:28:57;;;;;;;19.33;4.63;;;;;;;;;;2575844;23;19996;-91
2023/01/19 02:30:02;;;;;;;27.83;4.05;;;;;;;;;;2573744;23;20024;-91
2023/01/19 02:31:03;;;;;;;28.83;4.63;;;;;;;;;;2592648;23;19996;-91
2023/01/19 02:32:04;;;;;;;25.58;5.03;;;;;;;;;;2574906;23;20100;-91
2023/01/19 02:33:06;;;;;;;19.45;4.45;;;;;;;;;;2557789;23;19997;-90
2023/01/19 02:34:10;;;;;;;21.33;4.25;;;;;;;;;;2572534;23;20380;-91
2023/01/19 02:35:11;;;;;;;22.20;4.03;;;;;;;;;;2585643;23;20003;-91
2023/01/19 02:36:15;;;;;;;27.70;5.75;;;;;;;;;;2585789;23;20134;-91
2023/01/19 02:37:17;;;;;;;27.45;5.25;;;;;;;;;;2568067;23;19992;-91
2023/01/19 02:38:19;;;;;;;20.20;4.05;;;;;;;;;;2572726;23;20003;-91
2023/01/19 02:39:26;;;;;;;24.77;4.60;;;;;;;;;;2585432;23;19996;-90
2023/01/19 02:40:27;;;;;;;30.65;5.30;;;;;;;;;;2585371;23;20072;-91
2023/01/19 02:41:33;;;;;;;25.20;4.95;;;;;;;;;;2567709;23;20088;-90
2023/01/19 02:42:56;;;;;;;25.20;4.15;;;;;;;;;;2573198;23;20002;-89
2023/01/19 02:43:57;;;;;;;27.60;5.20;;;;;;;;;;2581017;23;20200;-90
2023/01/19 02:44:58;;;;;;;28.35;4.38;;;;;;;;;;2568539;23;20452;-90
2023/01/19 02:45:59;;;;;;;24.23;4.35;;;;;;;;;;2572683;23;20007;-89
2023/01/19 02:46:59;;;;;;;25.90;4.65;;;;;;;;;;2585934;23;20435;-90
2023/01/19 02:48:00;;;;;;;27.33;4.72;;;;;;;;;;2568215;23;20077;-90
2023/01/19 02:49:00;;;;;;;24.17;4.25;;;;;;;;;;2555764;23;20001;-91
2023/01/19 02:50:01;;;;;;;21.63;4.35;;;;;;;;;;2568046;23;19996;-90
2023/01/19 02:51:10;;;;;;;29.48;6.03;;;;;;;;;;2580329;23;20031;-89
2023/01/19 02:52:16;;;;;;;26.73;4.45;;;;;;;;;;2578738;23;20333;-90
2023/01/19 02:53:31;;;;;;;21.42;3.88;;;;;;;;;;2557085;23;20001;-90
2023/01/19 02:55:02;;;;;;;28.33;4.65;;;;;;;;;;2558276;23;20004;-91
2023/01/19 02:56:15;;;;;;;20.08;5.35;;;;;;;;;;2568281;23;20405;-90
2023/01/19 02:57:38;;;;;;;28.23;5.32;;;;;;;;;;2574631;23;20020;-90
2023/01/19 02:58:57;;;;;;;19.92;4.15;;;;;;;;;;2568222;23;20075;-90
2023/01/19 03:00:06;;;;;;;33.03;6.18;;;;;;;;;;2559112;23;20001;-90
2023/01/19 03:01:36;;;;;;;19.70;4.35;;;;;;;;;;2557131;23;20001;-89
2023/01/19 03:03:16;;;;;;;23.60;4.45;;;;;;;;;;2574109;23;20336;-90
2023/01/19 03:04:55;;;;;;;26.42;5.22;;;;;;;;;;2566173;23;20345;-91
2023/01/19 03:06:13;;;;;;;23.27;4.82;;;;;;;;;;2142108;23;10001722;-92
2023/01/19 03:07:21;;;;;;;19.00;4.28;;;;;;;;;;2567913;23;20420;-90
2023/01/19 03:08:37;;;;;;;29.88;6.22;;;;;;;;;;2557236;23;20008;-92
2023/01/19 03:09:42;;;;;;;18.27;3.72;;;;;;;;;;2575418;23;20064;-89
2023/01/19 03:11:01;;;;;;;26.65;6.00;;;;;;;;;;2585971;23;20063;-90
2023/01/19 03:12:07;;;;;;;17.35;4.07;;;;;;;;;;2567991;23;20452;-90
2023/01/19 03:13:30;;;;;;;26.02;4.90;;;;;;;;;;2556780;23;20055;-89
2023/01/19 03:14:33;;;;;;;30.83;4.50;;;;;;;;;;2522713;23;20013;-90
2023/01/19 03:15:43;;;;;;;23.17;4.25;;;;;;;;;;2553046;23;20020;-91
2023/01/19 03:16:53;;;;;;;18.83;3.20;;;;;;;;;;2570159;23;20487;-90
2023/01/19 03:17:57;;;;;;;24.98;5.18;;;;;;;;;;2585066;23;19992;-90
2023/01/19 03:19:09;;;;;;;14.63;3.20;;;;;;;;;;2567937;23;19996;-90
2023/01/19 03:21:34;;;;;;;24.30;3.65;;;;;;;;;;2548877;22;20020;-91
2023/01/19 03:22:35;;;;;;;24.52;4.18;;;;;;;;;;2588170;23;20451;-91
2023/01/19 03:23:39;;;;;;;21.50;4.13;;;;;;;;;;2567823;23;19999;-89
2023/01/19 03:24:44;;;;;;;19.13;4.07;;;;;;;;;;2573427;23;20015;-90
2023/01/19 03:25:47;;;;;;;17.35;3.65;;;;;;;;;;2568114;23;19988;-90
2023/01/19 03:27:16;;;;;;;24.50;4.43;;;;;;;;;;2572542;23;20015;-90
2023/01/19 03:28:21;;;;;;;30.83;5.03;;;;;;;;;;2578830;23;20004;-89
2023/01/19 03:29:26;;;;;;;26.52;5.53;;;;;;;;;;2567630;23;20032;-89
2023/01/19 03:30:35;;;;;;;24.50;4.70;;;;;;;;;;2572937;23;20058;-90
2023/01/19 03:31:36;;;;;;;25.02;5.22;;;;;;;;;;2585529;23;20003;-89
2023/01/19 03:32:43;;;;;;;25.33;5.45;;;;;;;;;;2567771;23;20071;-90
2023/01/19 03:33:52;;;;;;;29.58;5.22;;;;;;;;;;2573220;23;20389;-90
2023/01/19 03:34:54;;;;;;;21.10;4.90;;;;;;;;;;2567831;23;20000;-90
2023/01/19 03:36:02;;;;;;;21.35;4.72;;;;;;;;;;2572003;23;20024;-89
2023/01/19 03:37:05;;;;;;;29.08;4.13;;;;;;;;;;2585343;23;19996;-90
2023/01/19 03:38:13;;;;;;;21.30;4.90;;;;;;;;;;2568029;23;20007;-90
2023/01/19 03:39:20;;;;;;;25.48;5.10;;;;;;;;;;2573525;23;19997;-89
2023/01/19 03:40:22;;;;;;;22.58;4.75;;;;;;;;;;2585499;23;20030;-90
2023/01/19 03:41:24;;;;;;;24.20;4.57;;;;;;;;;;2567792;23;20347;-89
2023/01/19 03:42:27;;;;;;;30.88;5.63;;;;;;;;;;2556117;23;20017;-90
2023/01/19 03:43:30;;;;;;;25.92;4.40;;;;;;;;;;2129537;23;10230649;-90
2023/01/19 03:44:33;;;;;;;30.13;5.35;;;;;;;;;;2568048;23;19997;-89
2023/01/19 03:45:37;;;;;;;23.55;5.63;;;;;;;;;;2558242;23;20008;-87
2023/01/19 03:46:38;;;;;;;29.45;6.30;;;;;;;;;;2559341;23;20091;-85
2023/01/19 03:47:39;;;;;;;24.48;7.35;;;;;;;;;;2559104;23;20366;-86
2023/01/19 03:48:40;;;;;;;24.38;6.15;;;;;;;;;;2575287;23;19993;-87
2023/01/19 03:49:43;;;;;;;22.33;4.40;;;;;;;;;;2570242;23;20473;-87
2023/01/19 03:50:43;;;;;;;22.77;4.35;;;;;;;;;;2568210;23;20024;-88
2023/01/19 03:51:44;;;;;;;24.88;4.35;;;;;;;;;;2572120;23;20425;-89
2023/01/19 03:52:45;;;;;;;22.25;5.20;;;;;;;;;;2585613;23;19994;-88
2023/01/19 03:53:45;;;;;;;31.02;5.20;;;;;;;;;;2585368;23;20333;-89
2023/01/19 03:54:47;;;;;;;29.40;4.75;;;;;;;;;;2579916;23;20069;-88
2023/01/19 03:55:50;;;;;;;24.17;4.85;;;;;;;;;;2584523;23;20000;-89
2023/01/19 03:56:51;;;;;;;26.88;5.20;;;;;;;;;;2568030;23;19993;-89
2023/01/19 03:57:51;;;;;;;24.17;5.05;;;;;;;;;;2572024;23;20028;-88
2023/01/19 03:58:52;;;;;;;24.63;5.50;;;;;;;;;;2585745;23;19999;-89
2023/01/19 03:59:52;;;;;;;24.17;4.68;;;;;;;;;;2585296;23;20295;-89
2023/01/19 04:00:53;;;;;;;26.33;4.25;;;;;;;;;;2568030;23;20449;-88
2023/01/19 04:01:53;;;;;;;19.23;3.65;;;;;;;;;;2567603;23;20381;-89
2023/01/19 04:02:54;;;;;;;29.02;4.97;;;;;;;;;;2554942;23;20072;-89
2023/01/19 04:03:54;;;;;;;17.73;4.32;;;;;;;;;;2555253;23;20398;-89
2023/01/19 04:04:55;;;;;;;25.58;5.30;;;;;;;;;;2555338;23;20128;-91
2023/01/19 04:05:55;;;;;;;25.77;4.72;;;;;;;;;;2572062;23;19992;-88
2023/01/19 04:06:58;;;;;;;19.30;4.80;;;;;;;;;;2584517;23;20101;-89
2023/01/19 04:07:59;;;;;;;21.85;4.50;;;;;;;;;;2584621;23;20011;-89
2023/01/19 04:09:00;;;;;;;22.10;4.10;;;;;;;;;;2567201;23;20003;-89
2023/01/19 04:10:00;;;;;;;24.67;4.15;;;;;;;;;;2566869;23;19999;-89
2023/01/19 04:11:02;;;;;;;19.88;3.67;;;;;;;;;;2571426;23;20460;-89
2023/01/19 04:12:02;;;;;;;23.17;4.95;;;;;;;;;;2584758;23;20065;-90
2023/01/19 04:13:04;;;;;;;26.63;4.75;;;;;;;;;;2584653;23;20000;-89
2023/01/19 04:14:04;;;;;;;31.05;5.25;;;;;;;;;;2153399;23;10000034;-89
2023/01/19 04:15:05;;;;;;;25.83;5.60;;;;;;;;;;2577538;23;20013;-89
2023/01/19 04:16:06;;;;;;;28.48;6.25;;;;;;;;;;2571379;23;20062;-89
2023/01/19 04:17:08;;;;;;;30.95;6.15;;;;;;;;;;2129956;23;10198530;-90
2023/01/19 04:18:08;;;;;;;26.55;5.80;;;;;;;;;;2554960;23;20035;-89
2023/01/19 04:19:08;;;;;;;30.55;5.50;;;;;;;;;;2568790;23;20545;-89
2023/01/19 04:20:09;;;;;;;31.48;5.68;;;;;;;;;;2567443;23;19993;-89
2023/01/19 04:21:10;;;;;;;22.85;4.90;;;;;;;;;;2571261;23;20004;-88
2023/01/19 04:22:10;;;;;;;25.65;4.13;;;;;;;;;;2585982;23;20003;-88
2023/01/19 04:23:10;;;;;;;25.02;5.38;;;;;;;;;;2592392;23;20107;-90
2023/01/19 04:24:11;;;;;;;28.48;6.00;;;;;;;;;;2573420;23;20412;-90
2023/01/19 04:25:11;;;;;;;23.85;4.95;;;;;;;;;;2573350;23;20012;-89
2023/01/19 04:26:12;;;;;;;30.90;7.07;;;;;;;;;;2567140;23;19996;-89
2023/01/19 04:27:15;;;;;;;23.17;6.65;;;;;;;;;;2554722;23;20462;-89
2023/01/19 04:28:16;;;;;;;29.52;5.97;;;;;;;;;;2571907;23;19993;-88
2023/01/19 04:29:17;;;;;;;24.50;5.78;;;;;;;;;;2584714;23;20471;-88
2023/01/19 04:30:17;;;;;;;26.48;4.88;;;;;;;;;;2584532;23;20011;-89
2023/01/19 04:31:18;;;;;;;21.83;5.85;;;;;;;;;;2584586;23;19992;-89
2023/01/19 04:32:18;;;;;;;25.65;5.72;;;;;;;;;;2584655;23;20305;-89
2023/01/19 04:33:20;;;;;;;29.40;5.75;;;;;;;;;;2567232;23;20000;-88
2023/01/19 04:34:21;;;;;;;29.13;5.07;;;;;;;;;;2556729;23;19997;-89
2023/01/19 04:35:22;;;;;;;24.95;5.68;;;;;;;;;;2571271;23;19996;-89
2023/01/19 04:36:23;;;;;;;31.23;5.82;;;;;;;;;;2567082;23;20028;-88
2023/01/19 04:37:23;;;;;;;27.85;5.85;;;;;;;;;;2571338;23;19997;-89
2023/01/19 04:38:24;;;;;;;16.85;4.70;;;;;;;;;;2585610;23;20348;-90
2023/01/19 04:39:26;;;;;;;21.65;4.70;;;;;;;;;;2596242;22;20004;-90
2023/01/19 04:40:26;;;;;;;27.13;5.18;;;;;;;;;;2597416;22;20046;-91
2023/01/19 04:41:27;;;;;;;28.40;6.00;;;;;;;;;;2591446;22;20000;-90
2023/01/19 04:42:27;;;;;;;23.75;4.57;;;;;;;;;;2591210;23;20046;-91
2023/01/19 04:43:28;;;;;;;33.03;6.25;;;;;;;;;;2573732;23;20040;-91
2023/01/19 04:44:28;;;;;;;26.42;4.80;;;;;;;;;;2573924;23;19992;-92
2023/01/19 04:45:29;;;;;;;29.75;7.90;;;;;;;;;;2581694;23;20095;-90
2023/01/19 04:46:32;;;;;;;22.88;4.93;;;;;;;;;;2567973;23;20484;-92
2023/01/19 04:47:32;;;;;;;22.02;4.63;;;;;;;;;;2572342;23;19988;-90
2023/01/19 04:48:33;;;;;;;18.52;5.75;;;;;;;;;;2585123;23;20389;-90
2023/01/19 04:49:36;;;;;;;29.23;6.20;;;;;;;;;;2585329;23;20022;-91
2023/01/19 04:50:37;;;;;;;30.83;6.07;;;;;;;;;;2567830;23;20016;-91
2023/01/19 04:51:37;;;;;;;28.25;4.95;;;;;;;;;;2571581;23;20612;-90
2023/01/19 04:52:39;;;;;;;22.65;5.57;;;;;;;;;;2585105;23;20063;-89
2023/01/19 04:53:39;;;;;;;20.80;4.30;;;;;;;;;;2585088;23;19998;-90
2023/01/19 04:54:40;;;;;;;28.35;4.53;;;;;;;;;;2585092;23;20432;-91
2023/01/19 04:55:41;;;;;;;32.08;5.22;;;;;;;;;;2567293;23;20349;-91
2023/01/19 04:56:41;;;;;;;25.77;5.85;;;;;;;;;;2572935;23;20523;-91
2023/01/19 04:57:42;;;;;;;30.13;5.68;;;;;;;;;;2589058;23;19988;-90
2023/01/19 04:58:43;;;;;;;27.33;5.95;;;;;;;;;;2596406;23;19984;-90
2023/01/19 04:59:44;;;;;;;19.85;5.25;;;;;;;;;;2596084;23;20044;-90
2023/01/19 05:00:44;;;;;;;30.10;6.07;;;;;;;;;;2577812;23;20492;-91
2023/01/19 05:01:45;;;;;;;27.65;5.05;;;;;;;;;;2579238;23;19992;-90
2023/01/19 05:02:46;;;;;;;25.80;6.13;;;;;;;;;;2589739;23;19996;-90
2023/01/19 05:03:46;;;;;;;29.15;6.45;;;;;;;;;;2567679;23;20074;-90
2023/01/19 05:04:47;;;;;;;26.00;5.22;;;;;;;;;;2571555;23;20031;-89
2023/01/19 05:05:47;;;;;;;25.90;5.72;;;;;;;;;;2585242;23;20000;-89
2023/01/19 05:06:48;;;;;;;25.92;4.90;;;;;;;;;;2570100;23;19988;-89
2023/01/19 05:07:48;;;;;;;24.95;4.68;;;;;;;;;;2581059;23;19992;-91
2023/01/19 05:08:49;;;;;;;26.50;5.32;;;;;;;;;;2571057;23;20016;-90
2023/01/19 05:09:50;;;;;;;31.80;6.00;;;;;;;;;;2572187;23;20060;-89
2023/01/19 05:10:50;;;;;;;26.35;5.93;;;;;;;;;;2586717;23;20396;-90
2023/01/19 05:11:51;;;;;;;22.33;5.00;;;;;;;;;;2584941;23;20006;-90
2023/01/19 05:12:51;;;;;;;26.38;5.40;;;;;;;;;;2571379;23;20032;-89
2023/01/19 05:13:52;;;;;;;22.65;5.00;;;;;;;;;;2573398;23;20393;-89
2023/01/19 05:14:53;;;;;;;27.73;5.95;;;;;;;;;;2587579;23;20078;-89
2023/01/19 05:15:54;;;;;;;25.70;5.55;;;;;;;;;;2569439;23;20003;-90
2023/01/19 05:16:54;;;;;;;24.23;5.32;;;;;;;;;;2572025;23;20000;-89
2023/01/19 05:17:56;;;;;;;20.15;5.95;;;;;;;;;;2568018;23;20004;-89
2023/01/19 05:18:57;;;;;;;30.52;5.57;;;;;;;;;;2572626;23;20001;-90
2023/01/19 05:19:57;;;;;;;24.60;5.68;;;;;;;;;;2580506;23;20000;-88
2023/01/19 05:20:58;;;;;;;37.17;6.00;;;;;;;;;;2584394;23;20429;-88
2023/01/19 05:21:58;;;;;;;17.80;4.22;;;;;;;;;;2585694;23;20075;-88
2023/01/19 05:22:59;;;;;;;25.77;6.15;;;;;;;;;;2585647;23;20075;-90
2023/01/19 05:23:59;;;;;;;27.45;5.80;;;;;;;;;;2585560;23;20065;-89
2023/01/19 05:25:00;;;;;;;30.58;6.85;;;;;;;;;;2580380;23;20003;-90
2023/01/19 05:26:01;;;;;;;24.83;5.22;;;;;;;;;;2580194;23;20379;-89
2023/01/19 05:27:02;;;;;;;19.25;4.55;;;;;;;;;;2572074;23;19993;-90
2023/01/19 05:28:03;;;;;;;26.73;6.97;;;;;;;;;;2141719;23;10001796;-89
2023/01/19 05:29:03;;;;;;;25.10;5.47;;;;;;;;;;2559896;23;20380;-90
2023/01/19 05:30:05;;;;;;;23.05;5.25;;;;;;;;;;2574254;23;20011;-90
2023/01/19 05:31:06;;;;;;;25.17;4.78;;;;;;;;;;2567911;23;19997;-91
2023/01/19 05:32:06;;;;;;;23.23;5.10;;;;;;;;;;2555571;23;20481;-90
2023/01/19 05:33:07;;;;;;;25.20;4.47;;;;;;;;;;2572329;23;19993;-91
2023/01/19 05:34:10;;;;;;;27.83;5.63;;;;;;;;;;2585517;23;20016;-91
2023/01/19 05:35:14;;;;;;;28.10;5.75;;;;;;;;;;2585563;23;19999;-91
2023/01/19 05:36:14;;;;;;;30.67;4.57;;;;;;;;;;2567855;23;20477;-90
2023/01/19 05:37:15;;;;;;;30.45;6.50;;;;;;;;;;2555279;23;20012;-89
2023/01/19 05:38:15;;;;;;;25.10;5.43;;;;;;;;;;2129026;23;10241424;-91
2023/01/19 05:39:16;;;;;;;26.92;5.80;;;;;;;;;;2556065;23;19993;-89
2023/01/19 05:40:16;;;;;;;22.08;4.65;;;;;;;;;;2555910;23;20005;-88
2023/01/19 05:41:17;;;;;;;24.83;4.88;;;;;;;;;;2568288;23;20004;-90
2023/01/19 05:42:17;;;;;;;25.25;5.40;;;;;;;;;;2572576;23;19993;-89
2023/01/19 05:43:18;;;;;;;21.33;4.28;;;;;;;;;;2568040;23;20001;-90
2023/01/19 05:44:18;;;;;;;20.13;3.97;;;;;;;;;;2572404;23;19999;-90
2023/01/19 05:45:18;;;;;;;22.50;4.60;;;;;;;;;;2568252;23;20027;-89
2023/01/19 05:46:19;;;;;;;29.98;5.95;;;;;;;;;;2572367;23;19992;-90
2023/01/19 05:47:19;;;;;;;29.40;5.53;;;;;;;;;;2568168;23;20071;-89
2023/01/19 05:48:20;;;;;;;27.77;5.97;;;;;;;;;;2555959;23;19997;-89
2023/01/19 05:49:20;;;;;;;27.50;5.32;;;;;;;;;;2572240;23;20093;-90
2023/01/19 05:50:21;;;;;;;25.00;5.72;;;;;;;;;;2585657;23;20004;-92
2023/01/19 05:51:21;;;;;;;23.52;5.03;;;;;;;;;;2568388;23;20486;-91
2023/01/19 05:52:23;;;;;;;26.45;4.80;;;;;;;;;;2572450;23;20008;-93
2023/01/19 05:53:24;;;;;;;35.33;7.32;;;;;;;;;;2568020;23;19996;-91
2023/01/19 05:54:25;;;;;;;19.45;4.70;;;;;;;;;;2568330;23;20000;-90
2023/01/19 05:55:26;;;;;;;33.42;6.20;;;;;;;;;;2572654;23;20003;-91
2023/01/19 05:56:26;;;;;;;20.80;4.80;;;;;;;;;;2586186;23;20075;-90
2023/01/19 05:57:27;;;;;;;29.48;5.13;;;;;;;;;;2568206;23;20028;-91
2023/01/19 05:58:28;;;;;;;27.50;5.30;;;;;;;;;;2568452;23;19996;-91
2023/01/19 05:59:28;;;;;;;28.17;5.50;;;;;;;;;;2585301;23;20004;-90
2023/01/19 06:00:28;;;;;;;25.40;4.97;;;;;;;;;;2589430;23;20424;-91
2023/01/19 06:01:29;;;;;;;29.48;6.32;;;;;;;;;;2591869;23;20002;-92
2023/01/19 06:02:30;;;;;;;25.88;5.15;;;;;;;;;;2568628;23;20005;-92
2023/01/19 06:04:53;;;;;;;29.50;7.18;;;;;;;;;;2556818;23;20075;-92
2023/01/19 06:06:19;;;;;;;19.58;4.28;;;;;;;;;;2580668;23;20432;-91
2023/01/19 06:07:19;;;;;;;28.75;4.97;;;;;;;;;;2581196;23;20007;-91
2023/01/19 06:08:26;;;;;;;23.50;4.22;;;;;;;;;;2585644;23;20081;-91
2023/01/19 06:09:27;;;;;;;18.27;5.15;;;;;;;;;;2568893;23;20425;-90
2023/01/19 06:10:28;;;;;;;34.53;4.90;;;;;;;;;;2573160;23;20489;-91
2023/01/19 06:11:28;;;;;;;23.23;5.18;;;;;;;;;;2567934;23;20048;-90
2023/01/19 06:12:29;;;;;;;24.83;5.00;;;;;;;;;;2572566;23;20021;-90
2023/01/19 06:13:29;;;;;;;30.73;7.22;;;;;;;;;;2585494;23;19992;-90
2023/01/19 06:14:31;;;;;;;23.90;5.75;;;;;;;;;;2568153;23;20321;-91
2023/01/19 06:15:31;;;;;;;24.75;6.63;;;;;;;;;;2575517;23;20016;-90
2023/01/19 06:16:32;;;;;;;23.38;4.80;;;;;;;;;;2589696;23;19992;-92
2023/01/19 06:17:32;;;;;;;19.02;5.70;;;;;;;;;;2583284;23;19996;-90
2023/01/19 06:18:33;;;;;;;35.92;7.97;;;;;;;;;;2559087;23;20054;-91
2023/01/19 06:19:33;;;;;;;32.92;6.82;;;;;;;;;;2558273;23;20005;-91
2023/01/19 06:20:34;;;;;;;30.70;6.55;;;;;;;;;;2573905;23;20000;-89
2023/01/19 06:21:38;;;;;;;22.13;4.43;;;;;;;;;;2586032;23;19996;-91
2023/01/19 06:22:49;;;;;;;28.05;5.75;;;;;;;;;;2584138;23;20003;-95
2023/01/19 06:25:29;;;;;;;27.50;5.40;;;;;;;;;;2566401;23;20084;-95